createdAt,value
2018-09-08T00:00:55.564Z,19.39
2018-09-08T00:01:55.575Z,19.32
2018-09-08T00:02:55.596Z,19.29
2018-09-08T00:03:55.615Z,19.39
2018-09-08T00:04:55.635Z,19.31
2018-09-08T00:05:55.643Z,19.25
2018-09-08T00:06:55.663Z,19.25
2018-09-08T00:07:55.683Z,19.23
2018-09-08T00:08:55.708Z,19.11
2018-09-08T00:09:55.719Z,19.11
2018-09-08T00:10:55.781Z,19.13
2018-09-08T00:11:55.747Z,19.10
2018-09-08T00:12:55.769Z,19.16
2018-09-08T00:13:55.783Z,19.21
2018-09-08T00:14:55.798Z,19.21
2018-09-08T00:15:55.819Z,19.16
2018-09-08T00:16:55.840Z,19.19
2018-09-08T00:17:55.847Z,19.10
2018-09-08T00:18:55.864Z,19.13
2018-09-08T00:19:55.880Z,19.08
2018-09-08T00:20:55.897Z,19.18
2018-09-08T00:21:55.932Z,19.26
2018-09-08T00:22:55.937Z,19.21
2018-09-08T00:23:55.955Z,19.10
2018-09-08T00:24:55.967Z,18.95
2018-09-08T00:25:55.980Z,18.90
2018-09-08T00:26:55.994Z,18.90
2018-09-08T00:27:56.019Z,18.90
2018-09-08T00:28:56.029Z,18.90
2018-09-08T00:29:56.053Z,18.91
2018-09-08T00:30:56.064Z,18.87
2018-09-08T00:31:56.083Z,18.94
2018-09-08T00:32:56.104Z,18.81
2018-09-08T00:33:56.112Z,18.91
2018-09-08T00:34:56.127Z,18.85
2018-09-08T00:35:56.156Z,19.10
2018-09-08T00:36:56.167Z,18.95
2018-09-08T00:37:56.183Z,18.99
2018-09-08T00:38:56.200Z,18.92
2018-09-08T00:39:56.218Z,18.78
2018-09-08T00:40:56.232Z,18.80
2018-09-08T00:41:56.248Z,18.73
2018-09-08T00:42:56.269Z,18.70
2018-09-08T00:43:56.284Z,18.63
2018-09-08T00:44:56.299Z,18.69
2018-09-08T00:45:56.395Z,18.69
2018-09-08T00:46:56.352Z,18.67
2018-09-08T00:47:56.348Z,18.76
2018-09-08T00:48:56.365Z,18.72
2018-09-08T00:49:56.379Z,18.73
2018-09-08T00:50:56.400Z,18.72
2018-09-08T00:51:56.412Z,18.73
2018-09-08T00:52:56.439Z,18.58
2018-09-08T00:53:56.440Z,18.65
2018-09-08T00:54:56.459Z,18.62
2018-09-08T00:55:56.476Z,18.70
2018-09-08T00:56:56.496Z,18.54
2018-09-08T00:57:56.508Z,18.57
2018-09-08T00:58:56.552Z,18.55
2018-09-08T00:59:56.540Z,18.52
2018-09-08T01:00:56.560Z,18.57
2018-09-08T01:01:56.574Z,18.58
2018-09-08T01:02:56.591Z,18.62
2018-09-08T01:03:56.604Z,18.55
2018-09-08T01:04:56.644Z,18.65
2018-09-08T01:05:56.648Z,18.57
2018-09-08T01:06:56.656Z,18.60
2018-09-08T01:07:56.673Z,18.51
2018-09-08T01:08:56.691Z,18.52
2018-09-08T01:09:56.704Z,18.54
2018-09-08T01:10:56.723Z,18.44
2018-09-08T01:11:56.748Z,18.52
2018-09-08T01:12:56.759Z,18.44
2018-09-08T01:13:56.771Z,18.45
2018-09-08T01:14:56.791Z,18.44
2018-09-08T01:15:56.808Z,18.42
2018-09-08T01:16:56.819Z,18.37
2018-09-08T01:17:56.835Z,18.44
2018-09-08T01:18:56.851Z,18.45
2018-09-08T01:19:56.867Z,18.44
2018-09-08T01:20:56.884Z,18.42
2018-09-08T01:21:56.903Z,18.44
2018-09-08T01:22:56.920Z,18.47
2018-09-08T01:23:56.931Z,18.50
2018-09-08T01:24:56.957Z,18.41
2018-09-08T01:25:56.964Z,18.47
2018-09-08T01:26:56.983Z,18.45
2018-09-08T01:27:56.995Z,18.52
2018-09-08T01:28:57.014Z,18.52
2018-09-08T01:29:57.067Z,18.48
2018-09-08T01:30:57.047Z,18.51
2018-09-08T01:31:57.055Z,18.52
2018-09-08T01:32:57.076Z,18.52
2018-09-08T01:33:57.091Z,18.47
2018-09-08T01:34:57.106Z,18.41
2018-09-08T01:35:57.199Z,18.44
2018-09-08T01:36:57.143Z,18.45
2018-09-08T01:37:57.151Z,18.50
2018-09-08T01:38:57.172Z,18.55
2018-09-08T01:39:57.188Z,18.45
2018-09-08T01:40:57.203Z,18.54
2018-09-08T01:41:57.223Z,18.60
2018-09-08T01:42:57.240Z,18.48
2018-09-08T01:43:57.256Z,18.42
2018-09-08T01:44:57.272Z,18.44
2018-09-08T01:45:57.290Z,18.51
2018-09-08T01:46:57.299Z,18.54
2018-09-08T01:47:57.327Z,18.48
2018-09-08T01:48:57.339Z,18.37
2018-09-08T01:49:57.352Z,18.25
2018-09-08T01:50:57.372Z,18.44
2018-09-08T01:51:57.388Z,18.47
2018-09-08T01:52:57.403Z,18.44
2018-09-08T01:53:57.420Z,18.32
2018-09-08T01:54:57.436Z,18.27
2018-09-08T01:55:57.459Z,18.32
2018-09-08T01:56:57.472Z,18.37
2018-09-08T01:57:57.480Z,18.30
2018-09-08T01:58:57.500Z,18.18
2018-09-08T01:59:57.520Z,18.15
2018-09-08T02:00:57.530Z,18.10
2018-09-08T02:01:57.548Z,18.02
2018-09-08T02:02:57.560Z,18.10
2018-09-08T02:03:57.575Z,18.23
2018-09-08T02:04:57.597Z,18.18
2018-09-08T02:05:57.613Z,18.17
2018-09-08T02:06:57.633Z,18.12
2018-09-08T02:07:57.645Z,18.11
2018-09-08T02:08:57.661Z,18.08
2018-09-08T02:09:57.679Z,18.14
2018-09-08T02:10:57.687Z,18.18
2018-09-08T02:11:57.712Z,18.12
2018-09-08T02:12:57.750Z,18.05
2018-09-08T02:13:57.740Z,18.10
2018-09-08T02:14:57.757Z,18.05
2018-09-08T02:15:57.775Z,18.02
2018-09-08T02:16:57.789Z,17.82
2018-09-08T02:17:57.805Z,17.77
2018-09-08T02:18:57.825Z,17.87
2018-09-08T02:19:57.840Z,17.92
2018-09-08T02:20:57.857Z,17.89
2018-09-08T02:21:57.872Z,17.93
2018-09-08T02:22:57.888Z,18.05
2018-09-08T02:23:57.905Z,17.99
2018-09-08T02:24:57.993Z,18.20
2018-09-08T02:25:57.937Z,18.20
2018-09-08T02:26:57.947Z,18.18
2018-09-08T02:27:57.972Z,18.10
2018-09-08T02:28:57.993Z,18.05
2018-09-08T02:29:57.996Z,18.10
2018-09-08T02:30:58.022Z,18.03
2018-09-08T02:31:58.037Z,18.05
2018-09-08T02:32:58.049Z,18.00
2018-09-08T02:33:58.068Z,17.90
2018-09-08T02:34:58.095Z,17.95
2018-09-08T02:35:58.094Z,17.92
2018-09-08T02:36:58.129Z,17.95
2018-09-08T02:37:58.132Z,17.90
2018-09-08T02:38:58.147Z,17.97
2018-09-08T02:39:58.164Z,17.79
2018-09-08T02:40:58.187Z,17.71
2018-09-08T02:41:58.196Z,17.71
2018-09-08T02:42:58.230Z,17.71
2018-09-08T02:43:58.224Z,17.74
2018-09-08T02:44:58.238Z,17.81
2018-09-08T02:45:58.260Z,17.86
2018-09-08T02:46:58.276Z,17.87
2018-09-08T02:47:58.297Z,17.93
2018-09-08T02:48:58.308Z,17.90
2018-09-08T02:49:58.321Z,17.93
2018-09-08T02:50:58.341Z,17.92
2018-09-08T02:51:58.356Z,17.92
2018-09-08T02:52:58.372Z,17.92
2018-09-08T02:53:58.399Z,17.93
2018-09-08T02:54:58.410Z,17.95
2018-09-08T02:55:58.430Z,17.92
2018-09-08T02:56:58.435Z,17.84
2018-09-08T02:57:58.456Z,17.87
2018-09-08T02:58:58.468Z,17.84
2018-09-08T02:59:58.488Z,17.90
2018-09-08T03:00:58.505Z,17.82
2018-09-08T03:01:58.517Z,17.86
2018-09-08T03:02:58.533Z,17.97
2018-09-08T03:03:58.558Z,17.81
2018-09-08T03:05:02.368Z,17.93
2018-09-08T03:05:58.585Z,17.95
2018-09-08T03:06:58.604Z,17.86
2018-09-08T03:07:58.621Z,17.90
2018-09-08T03:08:58.637Z,17.78
2018-09-08T03:09:58.652Z,17.82
2018-09-08T03:10:58.716Z,17.75
2018-09-08T03:11:58.677Z,17.77
2018-09-08T03:12:58.696Z,17.72
2018-09-08T03:13:58.763Z,17.70
2018-09-08T03:14:58.724Z,17.77
2018-09-08T03:15:58.745Z,17.81
2018-09-08T03:16:58.759Z,17.81
2018-09-08T03:17:58.772Z,17.82
2018-09-08T03:18:58.812Z,17.77
2018-09-08T03:19:58.809Z,17.87
2018-09-08T03:20:58.820Z,17.77
2018-09-08T03:21:58.841Z,17.81
2018-09-08T03:22:58.851Z,17.78
2018-09-08T03:23:58.873Z,17.81
2018-09-08T03:24:58.902Z,17.82
2018-09-08T03:25:58.909Z,17.87
2018-09-08T03:26:58.924Z,17.92
2018-09-08T03:27:58.944Z,17.81
2018-09-08T03:28:58.952Z,17.81
2018-09-08T03:29:58.969Z,17.79
2018-09-08T03:30:58.984Z,17.78
2018-09-08T03:31:59.079Z,17.77
2018-09-08T03:32:59.017Z,17.75
2018-09-08T03:33:59.025Z,17.71
2018-09-08T03:34:59.049Z,17.72
2018-09-08T03:35:59.085Z,17.75
2018-09-08T03:36:59.090Z,17.74
2018-09-08T03:37:59.096Z,17.77
2018-09-08T03:38:59.108Z,17.79
2018-09-08T03:39:59.135Z,17.77
2018-09-08T03:40:59.140Z,17.82
2018-09-08T03:41:59.163Z,17.82
2018-09-08T03:42:59.173Z,17.79
2018-09-08T03:43:59.188Z,17.87
2018-09-08T03:44:59.201Z,17.84
2018-09-08T03:45:59.216Z,17.92
2018-09-08T03:46:59.233Z,17.89
2018-09-08T03:47:59.252Z,17.97
2018-09-08T03:48:59.281Z,17.96
2018-09-08T03:49:59.276Z,18.05
2018-09-08T03:50:59.293Z,18.14
2018-09-08T03:51:59.312Z,18.02
2018-09-08T03:52:59.329Z,17.92
2018-09-08T03:53:59.340Z,17.90
2018-09-08T03:54:59.356Z,17.99
2018-09-08T03:55:59.376Z,18.03
2018-09-08T03:56:59.480Z,18.14
2018-09-08T03:57:59.413Z,18.25
2018-09-08T03:58:59.512Z,18.23
2018-09-08T03:59:59.443Z,18.25
2018-09-08T04:00:59.456Z,18.29
2018-09-08T04:01:59.472Z,18.25
2018-09-08T04:02:59.556Z,18.32
2018-09-08T04:03:59.501Z,18.32
2018-09-08T04:04:59.526Z,18.41
2018-09-08T04:05:59.531Z,18.48
2018-09-08T04:06:59.547Z,18.42
2018-09-08T04:07:59.563Z,18.42
2018-09-08T04:08:59.620Z,18.39
2018-09-08T04:09:59.601Z,18.35
2018-09-08T04:10:59.611Z,18.45
2018-09-08T04:11:59.628Z,18.48
2018-09-08T04:12:59.643Z,18.50
2018-09-08T04:13:59.663Z,18.55
2018-09-08T04:14:59.737Z,18.57
2018-09-08T04:15:59.699Z,18.72
2018-09-08T04:16:59.712Z,18.66
2018-09-08T04:17:59.747Z,18.70
2018-09-08T04:18:59.744Z,18.65
2018-09-08T04:19:59.760Z,18.62
2018-09-08T04:20:59.780Z,18.69
2018-09-08T04:21:59.792Z,18.66
2018-09-08T04:22:59.807Z,18.70
2018-09-08T04:23:59.852Z,18.82
2018-09-08T04:24:59.856Z,18.81
2018-09-08T04:25:59.856Z,18.88
2018-09-08T04:26:59.868Z,18.84
2018-09-08T04:27:59.907Z,18.82
2018-09-08T04:28:59.911Z,18.78
2018-09-08T04:29:59.923Z,18.92
2018-09-08T04:30:59.938Z,18.91
2018-09-08T04:31:59.957Z,19.00
2018-09-08T04:32:59.967Z,18.90
2018-09-08T04:34:00.072Z,18.88
2018-09-08T04:35:00.003Z,18.88
2018-09-08T04:36:00.020Z,18.81
2018-09-08T04:37:00.032Z,18.90
2018-09-08T04:38:00.055Z,18.82
2018-09-08T04:39:00.068Z,18.76
2018-09-08T04:40:00.143Z,18.84
2018-09-08T04:41:00.145Z,18.82
2018-09-08T04:42:00.120Z,18.80
2018-09-08T04:43:00.132Z,18.81
2018-09-08T04:44:00.152Z,18.90
2018-09-08T04:45:00.172Z,18.92
2018-09-08T04:46:00.180Z,18.91
2018-09-08T04:47:00.204Z,18.88
2018-09-08T04:48:00.216Z,18.99
2018-09-08T04:49:00.233Z,18.91
2018-09-08T04:50:00.251Z,18.78
2018-09-08T04:51:00.268Z,18.76
2018-09-08T04:52:00.287Z,18.84
2018-09-08T04:53:00.297Z,18.75
2018-09-08T04:54:00.324Z,18.73
2018-09-08T04:55:00.336Z,18.76
2018-09-08T04:56:00.351Z,18.76
2018-09-08T04:57:00.363Z,18.72
2018-09-08T04:58:00.384Z,18.69
2018-09-08T04:59:00.404Z,18.73
2018-09-08T05:00:00.412Z,18.80
2018-09-08T05:01:00.436Z,18.78
2018-09-08T05:02:00.452Z,18.76
2018-09-08T05:03:00.464Z,18.72
2018-09-08T05:04:00.536Z,18.73
2018-09-08T05:05:00.496Z,18.70
2018-09-08T05:06:00.512Z,18.76
2018-09-08T05:07:00.525Z,18.81
2018-09-08T05:08:00.543Z,18.84
2018-09-08T05:09:00.621Z,18.76
2018-09-08T05:10:00.631Z,18.72
2018-09-08T05:11:00.592Z,18.85
2018-09-08T05:12:00.615Z,18.98
2018-09-08T05:13:00.628Z,19.04
2018-09-08T05:14:00.642Z,18.92
2018-09-08T05:15:00.655Z,18.88
2018-09-08T05:16:00.704Z,18.95
2018-09-08T05:17:00.738Z,18.90
2018-09-08T05:18:00.719Z,18.91
2018-09-08T05:19:00.724Z,18.98
2018-09-08T05:20:00.747Z,18.91
2018-09-08T05:21:00.758Z,19.00
2018-09-08T05:22:00.792Z,18.95
2018-09-08T05:23:00.787Z,18.85
2018-09-08T05:24:00.813Z,18.94
2018-09-08T05:25:00.826Z,18.98
2018-09-08T05:26:00.841Z,18.94
2018-09-08T05:27:00.851Z,19.04
2018-09-08T05:28:00.876Z,19.02
2018-09-08T05:29:00.887Z,18.98
2018-09-08T05:30:00.904Z,18.94
2018-09-08T05:31:00.920Z,18.99
2018-09-08T05:32:00.936Z,19.04
2018-09-08T05:33:00.960Z,18.95
2018-09-08T05:34:00.972Z,18.94
2018-09-08T05:35:01.088Z,19.06
2018-09-08T05:36:01.004Z,19.02
2018-09-08T05:37:01.020Z,19.00
2018-09-08T05:38:01.036Z,18.98
2018-09-08T05:39:01.052Z,18.94
2018-09-08T05:40:01.068Z,18.90
2018-09-08T05:41:01.136Z,18.95
2018-09-08T05:42:01.105Z,18.92
2018-09-08T05:43:01.207Z,19.02
2018-09-08T05:44:01.132Z,19.02
2018-09-08T05:45:01.143Z,18.99
2018-09-08T05:46:01.164Z,19.04
2018-09-08T05:47:01.180Z,19.06
2018-09-08T05:48:01.196Z,19.08
2018-09-08T05:49:01.220Z,19.10
2018-09-08T05:50:01.231Z,19.07
2018-09-08T05:51:01.244Z,19.14
2018-09-08T05:52:01.267Z,19.10
2018-09-08T05:53:01.272Z,19.07
2018-09-08T05:54:01.295Z,19.06
2018-09-08T05:55:01.307Z,19.00
2018-09-08T05:56:01.328Z,19.02
2018-09-08T05:57:01.340Z,19.00
2018-09-08T05:58:01.357Z,19.07
2018-09-08T05:59:01.372Z,19.11
2018-09-08T06:00:01.392Z,19.10
2018-09-08T06:01:01.407Z,19.08
2018-09-08T06:02:01.433Z,19.22
2018-09-08T06:03:01.439Z,19.10
2018-09-08T06:04:01.458Z,19.11
2018-09-08T06:05:01.467Z,19.10
2018-09-08T06:06:01.503Z,19.08
2018-09-08T06:07:01.507Z,19.21
2018-09-08T06:08:01.519Z,19.26
2018-09-08T06:09:01.535Z,19.29
2018-09-08T06:10:01.570Z,19.37
2018-09-08T06:11:01.571Z,19.41
2018-09-08T06:12:01.584Z,19.41
2018-09-08T06:13:01.604Z,19.43
2018-09-08T06:14:01.619Z,19.50
2018-09-08T06:15:01.639Z,19.41
2018-09-08T06:16:01.650Z,19.50
2018-09-08T06:17:01.697Z,19.41
2018-09-08T06:18:01.686Z,19.40
2018-09-08T06:19:01.703Z,19.40
2018-09-08T06:20:01.742Z,19.43
2018-09-08T06:21:01.733Z,19.39
2018-09-08T06:22:01.751Z,19.36
2018-09-08T06:23:01.765Z,19.36
2018-09-08T06:24:01.774Z,19.40
2018-09-08T06:25:01.801Z,19.40
2018-09-08T06:26:01.813Z,19.39
2018-09-08T06:27:01.844Z,19.41
2018-09-08T06:28:01.847Z,19.47
2018-09-08T06:29:01.867Z,19.37
2018-09-08T06:30:01.876Z,19.43
2018-09-08T06:31:01.894Z,19.47
2018-09-08T06:32:01.906Z,19.44
2018-09-08T06:33:01.926Z,19.50
2018-09-08T06:34:01.947Z,19.46
2018-09-08T06:35:02.005Z,19.54
2018-09-08T06:36:02.079Z,19.56
2018-09-08T06:37:01.993Z,19.51
2018-09-08T06:38:02.005Z,19.56
2018-09-08T06:39:02.026Z,19.56
2018-09-08T06:40:02.045Z,19.56
2018-09-08T06:41:02.061Z,19.61
2018-09-08T06:42:02.093Z,19.51
2018-09-08T06:43:02.091Z,19.51
2018-09-08T06:44:02.118Z,19.39
2018-09-08T06:45:02.207Z,19.46
2018-09-08T06:46:02.150Z,19.58
2018-09-08T06:47:02.162Z,19.58
2018-09-08T06:48:02.242Z,19.65
2018-09-08T06:49:02.189Z,19.61
2018-09-08T06:50:02.201Z,19.76
2018-09-08T06:51:02.225Z,19.74
2018-09-08T06:52:02.262Z,19.71
2018-09-08T06:53:02.254Z,19.74
2018-09-08T06:54:02.282Z,19.76
2018-09-08T06:55:02.294Z,19.66
2018-09-08T06:56:02.310Z,19.74
2018-09-08T06:57:02.327Z,19.74
2018-09-08T06:58:02.440Z,19.77
2018-09-08T06:59:02.369Z,19.71
2018-09-08T07:00:02.372Z,19.66
2018-09-08T07:01:02.390Z,19.66
2018-09-08T07:02:02.410Z,19.62
2018-09-08T07:03:02.418Z,19.55
2018-09-08T07:04:02.438Z,19.43
2018-09-08T07:05:02.453Z,19.47
2018-09-08T07:06:02.470Z,19.50
2018-09-08T07:07:02.483Z,19.50
2018-09-08T07:08:02.501Z,19.37
2018-09-08T07:09:02.527Z,19.26
2018-09-08T07:10:02.538Z,19.23
2018-09-08T07:11:02.547Z,19.16
2018-09-08T07:12:02.567Z,19.22
2018-09-08T07:13:02.582Z,19.23
2018-09-08T07:14:02.597Z,19.19
2018-09-08T07:15:02.700Z,19.21
2018-09-08T07:16:02.633Z,19.22
2018-09-08T07:17:02.650Z,19.25
2018-09-08T07:18:02.667Z,19.36
2018-09-08T07:19:02.741Z,19.36
2018-09-08T07:20:02.700Z,19.29
2018-09-08T07:21:02.712Z,19.41
2018-09-08T07:22:02.838Z,19.37
2018-09-08T07:23:02.749Z,19.39
2018-09-08T07:24:02.758Z,19.47
2018-09-08T07:25:02.952Z,19.47
2018-09-08T07:26:02.792Z,19.51
2018-09-08T07:27:02.812Z,19.48
2018-09-08T07:28:02.826Z,19.48
2018-09-08T07:29:02.845Z,19.48
2018-09-08T07:30:02.865Z,19.48
2018-09-08T07:31:02.958Z,19.46
2018-09-08T07:32:02.890Z,19.54
2018-09-08T07:33:02.916Z,19.63
2018-09-08T07:34:02.933Z,19.55
2018-09-08T07:35:02.938Z,19.48
2018-09-08T07:36:02.960Z,19.65
2018-09-08T07:37:03.001Z,19.50
2018-09-08T07:38:02.986Z,19.65
2018-09-08T07:39:03.011Z,19.59
2018-09-08T07:40:03.030Z,19.46
2018-09-08T07:41:03.042Z,19.43
2018-09-08T07:42:03.051Z,19.29
2018-09-08T07:43:03.086Z,19.39
2018-09-08T07:44:03.087Z,19.44
2018-09-08T07:45:03.103Z,19.40
2018-09-08T07:46:03.246Z,19.43
2018-09-08T07:47:03.135Z,19.44
2018-09-08T07:48:03.157Z,19.48
2018-09-08T07:49:03.191Z,19.56
2018-09-08T07:50:03.191Z,19.63
2018-09-08T07:51:03.209Z,19.61
2018-09-08T07:52:03.223Z,19.59
2018-09-08T07:53:03.233Z,19.62
2018-09-08T07:54:03.324Z,19.48
2018-09-08T07:55:03.267Z,19.50
2018-09-08T07:56:03.286Z,19.47
2018-09-08T07:57:03.298Z,19.51
2018-09-08T07:58:03.316Z,19.58
2018-09-08T07:59:03.339Z,19.63
2018-09-08T08:00:03.343Z,19.59
2018-09-08T08:01:03.369Z,19.51
2018-09-08T08:02:03.378Z,19.55
2018-09-08T08:03:03.401Z,19.66
2018-09-08T08:04:03.419Z,19.68
2018-09-08T08:05:03.434Z,19.62
2018-09-08T08:06:03.442Z,19.65
2018-09-08T08:07:03.467Z,19.68
2018-09-08T08:08:03.482Z,19.74
2018-09-08T08:09:03.501Z,19.77
2018-09-08T08:10:03.513Z,19.56
2018-09-08T08:11:03.525Z,19.63
2018-09-08T08:12:03.550Z,19.80
2018-09-08T08:13:03.566Z,19.69
2018-09-08T08:14:03.622Z,19.66
2018-09-08T08:15:03.601Z,19.73
2018-09-08T08:16:03.610Z,19.68
2018-09-08T08:17:03.621Z,19.71
2018-09-08T08:18:03.641Z,19.81
2018-09-08T08:19:03.661Z,19.84
2018-09-08T08:20:03.746Z,19.99
2018-09-08T08:21:03.691Z,20.03
2018-09-08T08:22:03.710Z,20.02
2018-09-08T08:23:03.730Z,20.11
2018-09-08T08:24:03.765Z,20.13
2018-09-08T08:25:03.760Z,20.02
2018-09-08T08:26:03.781Z,19.94
2018-09-08T08:27:03.790Z,20.02
2018-09-08T08:28:03.803Z,20.06
2018-09-08T08:29:03.817Z,19.96
2018-09-08T08:30:03.837Z,20.06
2018-09-08T08:31:03.863Z,20.08
2018-09-08T08:32:03.867Z,20.21
2018-09-08T08:33:03.898Z,20.18
2018-09-08T08:34:03.906Z,20.20
2018-09-08T08:35:03.917Z,20.08
2018-09-08T08:36:03.938Z,20.03
2018-09-08T08:37:04.022Z,20.13
2018-09-08T08:38:03.970Z,20.16
2018-09-08T08:39:03.989Z,20.13
2018-09-08T08:40:04.022Z,19.96
2018-09-08T08:41:04.023Z,19.88
2018-09-08T08:42:04.039Z,19.96
2018-09-08T08:43:04.107Z,19.78
2018-09-08T08:44:04.090Z,19.92
2018-09-08T08:45:04.089Z,19.94
2018-09-08T08:46:04.106Z,19.99
2018-09-08T08:47:04.126Z,20.05
2018-09-08T08:48:04.139Z,20.10
2018-09-08T08:49:04.152Z,20.14
2018-09-08T08:50:04.170Z,20.03
2018-09-08T08:51:04.185Z,20.10
2018-09-08T08:52:04.202Z,20.17
2018-09-08T08:53:04.222Z,20.21
2018-09-08T08:54:04.234Z,20.14
2018-09-08T08:55:04.253Z,20.11
2018-09-08T08:56:04.264Z,20.03
2018-09-08T08:57:04.370Z,19.98
2018-09-08T08:58:04.301Z,20.03
2018-09-08T08:59:04.321Z,20.05
2018-09-08T09:00:04.330Z,20.13
2018-09-08T09:01:04.347Z,20.26
2018-09-08T09:02:04.362Z,20.41
2018-09-08T09:03:04.429Z,20.32
2018-09-08T09:04:04.394Z,20.36
2018-09-08T09:05:04.413Z,20.61
2018-09-08T09:06:04.429Z,20.74
2018-09-08T09:07:04.909Z,20.76
2018-09-08T09:08:04.465Z,20.82
2018-09-08T09:09:04.485Z,20.92
2018-09-08T09:10:04.497Z,20.88
2018-09-08T09:11:04.513Z,20.84
2018-09-08T09:12:04.524Z,20.94
2018-09-08T09:13:04.604Z,20.73
2018-09-08T09:14:04.562Z,20.76
2018-09-08T09:15:05.086Z,20.64
2018-09-08T09:16:04.602Z,20.62
2018-09-08T09:17:04.620Z,20.69
2018-09-08T09:18:04.631Z,20.67
2018-09-08T09:19:04.653Z,20.62
2018-09-08T09:20:04.665Z,20.74
2018-09-08T09:21:04.677Z,20.79
2018-09-08T09:22:04.705Z,20.85
2018-09-08T09:23:05.177Z,20.98
2018-09-08T09:24:04.862Z,21.27
2018-09-08T09:25:04.850Z,21.31
2018-09-08T09:26:04.769Z,21.38
2018-09-08T09:27:04.786Z,21.35
2018-09-08T09:28:04.798Z,21.28
2018-09-08T09:29:04.814Z,21.10
2018-09-08T09:30:04.830Z,21.12
2018-09-08T09:31:04.845Z,21.04
2018-09-08T09:32:04.870Z,21.12
2018-09-08T09:33:04.887Z,21.10
2018-09-08T09:34:04.926Z,21.10
2018-09-08T09:35:04.927Z,21.13
2018-09-08T09:36:04.937Z,21.06
2018-09-08T09:37:04.953Z,20.95
2018-09-08T09:38:04.972Z,20.97
2018-09-08T09:39:04.985Z,21.07
2018-09-08T09:40:05.064Z,21.14
2018-09-08T09:41:05.014Z,20.95
2018-09-08T09:42:05.029Z,20.84
2018-09-08T09:43:05.047Z,20.98
2018-09-08T09:44:05.109Z,21.38
2018-09-08T09:45:05.087Z,21.56
2018-09-08T09:46:05.105Z,21.65
2018-09-08T09:47:05.113Z,21.88
2018-09-08T09:48:05.134Z,22.28
2018-09-08T09:49:05.154Z,22.77
2018-09-08T09:50:05.165Z,23.04
2018-09-08T09:51:05.181Z,23.22
2018-09-08T09:52:05.202Z,22.92
2018-09-08T09:53:05.363Z,22.83
2018-09-08T09:54:05.237Z,22.82
2018-09-08T09:55:05.253Z,22.77
2018-09-08T09:56:05.269Z,22.72
2018-09-08T09:57:05.295Z,22.94
2018-09-08T09:58:05.305Z,22.88
2018-09-08T09:59:05.419Z,22.86
2018-09-08T10:00:05.349Z,22.70
2018-09-08T10:01:05.380Z,22.51
2018-09-08T10:02:05.375Z,22.49
2018-09-08T10:03:05.397Z,22.64
2018-09-08T10:04:05.417Z,23.12
2018-09-08T10:05:05.505Z,23.19
2018-09-08T10:06:05.455Z,23.02
2018-09-08T10:07:05.461Z,22.67
2018-09-08T10:08:05.489Z,22.46
2018-09-08T10:09:05.505Z,22.22
2018-09-08T10:10:05.516Z,21.91
2018-09-08T10:11:05.551Z,21.59
2018-09-08T10:12:05.652Z,21.94
2018-09-08T10:13:05.570Z,21.99
2018-09-08T10:14:05.589Z,22.15
2018-09-08T10:15:05.608Z,22.21
2018-09-08T10:16:05.625Z,22.24
2018-09-08T10:17:05.688Z,21.98
2018-09-08T10:18:05.662Z,22.03
2018-09-08T10:19:05.677Z,22.54
2018-09-08T10:20:05.688Z,22.91
2018-09-08T10:21:05.717Z,22.86
2018-09-08T10:22:05.725Z,23.36
2018-09-08T10:23:05.762Z,23.38
2018-09-08T10:24:05.764Z,23.05
2018-09-08T10:25:05.786Z,23.46
2018-09-08T10:26:05.802Z,23.36
2018-09-08T10:27:05.821Z,23.33
2018-09-08T10:28:05.837Z,23.39
2018-09-08T10:29:05.858Z,23.42
2018-09-08T10:30:05.874Z,23.48
2018-09-08T10:31:05.890Z,23.79
2018-09-08T10:32:06.282Z,23.90
2018-09-08T10:33:05.929Z,23.90
2018-09-08T10:34:05.940Z,23.70
2018-09-08T10:35:05.963Z,23.66
2018-09-08T10:36:05.982Z,23.70
2018-09-08T10:37:06.001Z,23.46
2018-09-08T10:38:06.013Z,23.39
2018-09-08T10:39:06.041Z,22.94
2018-09-08T10:40:06.056Z,22.68
2018-09-08T10:41:06.077Z,22.43
2018-09-08T10:42:06.173Z,22.37
2018-09-08T10:43:06.113Z,22.31
2018-09-08T10:44:06.129Z,22.20
2018-09-08T10:45:06.141Z,22.24
2018-09-08T10:46:06.161Z,22.30
2018-09-08T10:47:06.185Z,22.12
2018-09-08T10:48:06.250Z,22.22
2018-09-08T10:49:06.224Z,22.42
2018-09-08T10:50:06.233Z,22.60
2018-09-08T10:51:06.250Z,22.72
2018-09-08T10:52:06.275Z,22.77
2018-09-08T10:53:06.291Z,22.79
2018-09-08T10:54:06.302Z,22.67
2018-09-08T10:55:06.335Z,22.64
2018-09-08T10:56:06.341Z,22.82
2018-09-08T10:57:06.361Z,22.77
2018-09-08T10:58:06.373Z,22.76
2018-09-08T10:59:06.389Z,22.92
2018-09-08T11:00:06.477Z,22.94
2018-09-08T11:01:06.435Z,22.92
2018-09-08T11:02:06.757Z,22.86
2018-09-08T11:03:06.466Z,22.72
2018-09-08T11:04:06.490Z,22.67
2018-09-08T11:05:06.502Z,22.67
2018-09-08T11:06:06.547Z,22.58
2018-09-08T11:07:06.534Z,22.77
2018-09-08T11:08:06.557Z,22.94
2018-09-08T11:09:06.577Z,22.97
2018-09-08T11:10:06.590Z,23.09
2018-09-08T11:11:06.609Z,23.22
2018-09-08T11:12:06.628Z,23.00
2018-09-08T11:13:06.649Z,22.95
2018-09-08T11:14:06.666Z,23.00
2018-09-08T11:15:06.682Z,22.92
2018-09-08T11:16:06.695Z,22.86
2018-09-08T11:17:06.711Z,22.77
2018-09-08T11:18:06.737Z,22.80
2018-09-08T11:19:06.754Z,22.82
2018-09-08T11:20:06.769Z,22.65
2018-09-08T11:21:06.790Z,22.46
2018-09-08T11:22:06.806Z,22.03
2018-09-08T11:23:06.831Z,22.05
2018-09-08T11:24:06.854Z,21.99
2018-09-08T11:25:06.857Z,22.20
2018-09-08T11:26:06.874Z,22.18
2018-09-08T11:27:06.898Z,22.28
2018-09-08T11:28:06.918Z,22.25
2018-09-08T11:29:06.929Z,22.09
2018-09-08T11:30:06.951Z,22.18
2018-09-08T11:31:07.050Z,22.03
2018-09-08T11:32:06.988Z,22.06
2018-09-08T11:33:07.003Z,22.03
2018-09-08T11:34:07.018Z,22.02
2018-09-08T11:35:07.034Z,22.17
2018-09-08T11:36:07.056Z,22.00
2018-09-08T11:37:07.070Z,21.99
2018-09-08T11:38:07.128Z,22.03
2018-09-08T11:39:07.106Z,22.05
2018-09-08T11:40:07.129Z,22.02
2018-09-08T11:41:07.141Z,22.15
2018-09-08T11:42:07.161Z,22.09
2018-09-08T11:43:07.218Z,21.88
2018-09-08T11:44:07.197Z,21.96
2018-09-08T11:45:07.216Z,21.99
2018-09-08T11:46:07.230Z,22.24
2018-09-08T11:47:07.246Z,22.49
2018-09-08T11:48:07.266Z,22.28
2018-09-08T11:49:07.322Z,22.27
2018-09-08T11:50:07.302Z,22.45
2018-09-08T11:51:07.322Z,22.57
2018-09-08T11:52:07.334Z,22.57
2018-09-08T11:53:07.357Z,22.94
2018-09-08T11:54:07.370Z,23.07
2018-09-08T11:55:07.470Z,22.92
2018-09-08T11:56:07.411Z,23.01
2018-09-08T11:57:07.424Z,22.73
2018-09-08T11:58:07.446Z,22.67
2018-09-08T11:59:07.462Z,22.73
2018-09-08T12:00:07.495Z,22.72
2018-09-08T12:01:07.493Z,22.67
2018-09-08T12:02:07.585Z,22.70
2018-09-08T12:03:07.579Z,22.65
2018-09-08T12:04:07.546Z,22.64
2018-09-08T12:05:07.573Z,22.73
2018-09-08T12:06:07.581Z,22.79
2018-09-08T12:07:07.666Z,22.82
2018-09-08T12:08:07.670Z,22.83
2018-09-08T12:09:07.637Z,22.92
2018-09-08T12:10:07.657Z,23.16
2018-09-08T12:11:07.667Z,23.19
2018-09-08T12:12:07.689Z,23.22
2018-09-08T12:13:07.704Z,23.36
2018-09-08T12:14:07.726Z,23.32
2018-09-08T12:15:07.741Z,23.68
2018-09-08T12:16:07.766Z,23.58
2018-09-08T12:17:07.780Z,23.78
2018-09-08T12:18:07.791Z,24.34
2018-09-08T12:19:07.845Z,24.65
2018-09-08T12:20:07.829Z,24.84
2018-09-08T12:21:07.850Z,24.96
2018-09-08T12:22:07.877Z,24.84
2018-09-08T12:23:07.889Z,24.68
2018-09-08T12:24:07.905Z,24.58
2018-09-08T12:25:07.925Z,24.37
2018-09-08T12:26:07.942Z,24.57
2018-09-08T12:27:07.969Z,24.65
2018-09-08T12:28:07.983Z,24.78
2018-09-08T12:29:07.998Z,24.85
2018-09-08T12:30:08.022Z,24.03
2018-09-08T12:31:08.033Z,24.12
2018-09-08T12:32:08.130Z,23.90
2018-09-08T12:33:08.083Z,23.69
2018-09-08T12:34:08.102Z,23.38
2018-09-08T12:35:08.108Z,23.28
2018-09-08T12:36:08.130Z,23.39
2018-09-08T12:37:08.167Z,23.58
2018-09-08T12:38:08.189Z,23.80
2018-09-08T12:39:08.189Z,23.93
2018-09-08T12:40:08.206Z,24.28
2018-09-08T12:41:08.230Z,24.49
2018-09-08T12:42:08.244Z,24.35
2018-09-08T12:43:08.258Z,24.00
2018-09-08T12:44:08.305Z,23.83
2018-09-08T12:45:08.294Z,23.90
2018-09-08T12:46:08.319Z,24.13
2018-09-08T12:47:08.334Z,23.95
2018-09-08T12:48:08.350Z,23.79
2018-09-08T12:49:08.370Z,23.66
2018-09-08T12:50:08.391Z,23.79
2018-09-08T12:51:08.410Z,23.78
2018-09-08T12:52:08.437Z,24.02
2018-09-08T12:53:08.446Z,23.90